Time;durP1;ratioP1;P1;durP2;ratioP2;P2;SDS_P1;SDS_P2;PMS_P1;PMS_P2;Temp;Humidity;BMP_temperature;BMP_pressure;BME280_temperature;BME280_humidity;BME280_pressure;Samples;Min_cycle;Max_cycle;Signal;HPM_P1;HPM_P2
2021/09/29 00:01:22;;;;;;;15.70;7.35;;;13.50;98.50;;;;;;4994884;28;20089;-71
2021/09/29 00:03:48;;;;;;;15.63;7.50;;;13.50;98.60;;;;;;4995290;28;20030;-71
2021/09/29 00:06:13;;;;;;;13.00;7.30;;;13.50;98.70;;;;;;4994909;28;20096;-71
2021/09/29 00:08:39;;;;;;;11.25;7.38;;;13.50;98.70;;;;;;4994646;28;20080;-71
2021/09/29 00:11:04;;;;;;;14.07;6.85;;;13.50;98.70;;;;;;4994444;28;20042;-72
2021/09/29 00:13:30;;;;;;;11.32;6.90;;;13.60;98.70;;;;;;4994604;28;20065;-71
2021/09/29 00:15:56;;;;;;;14.38;7.88;;;13.60;98.70;;;;;;4993962;28;20023;-72
2021/09/29 00:18:22;;;;;;;15.07;7.60;;;13.50;98.60;;;;;;4993836;28;20034;-71
2021/09/29 00:20:49;;;;;;;12.57;6.90;;;13.50;98.70;;;;;;4994921;28;20456;-71
2021/09/29 00:23:14;;;;;;;11.98;7.55;;;13.50;98.70;;;;;;4994615;28;20041;-71
2021/09/29 00:25:40;;;;;;;13.07;7.72;;;13.60;98.70;;;;;;4994493;28;20122;-70
2021/09/29 00:28:06;;;;;;;14.27;7.03;;;13.60;98.60;;;;;;4994463;28;20077;-71
2021/09/29 00:30:36;;;;;;;15.60;7.22;;;13.60;98.60;;;;;;4993639;28;20027;-71
2021/09/29 00:33:03;;;;;;;19.38;7.50;;;13.60;98.70;;;;;;4994166;28;20032;-72
2021/09/29 00:35:29;;;;;;;13.65;6.78;;;13.60;98.60;;;;;;4994308;28;20353;-72
2021/09/29 00:37:54;;;;;;;14.48;7.60;;;13.60;98.70;;;;;;4994222;28;20054;-72
2021/09/29 00:40:20;;;;;;;12.90;6.50;;;13.60;98.80;;;;;;4994103;28;20445;-72
2021/09/29 00:42:46;;;;;;;22.52;8.20;;;13.60;98.80;;;;;;4994536;28;20476;-72
2021/09/29 00:45:12;;;;;;;15.52;7.32;;;13.60;98.50;;;;;;4994077;28;20041;-72
2021/09/29 00:47:37;;;;;;;12.70;6.78;;;13.60;98.70;;;;;;4993936;28;20108;-72
2021/09/29 00:50:08;;;;;;;13.25;6.78;;;13.60;98.80;;;;;;4993987;28;20057;-73
2021/09/29 00:52:34;;;;;;;18.92;7.30;;;13.60;98.80;;;;;;4992734;28;20415;-71
2021/09/29 00:55:00;;;;;;;12.82;6.53;;;13.60;98.70;;;;;;4994449;28;20063;-71
2021/09/29 00:57:26;;;;;;;13.20;6.85;;;13.60;98.80;;;;;;4994112;28;20383;-71
2021/09/29 00:59:52;;;;;;;14.68;6.82;;;13.60;98.80;;;;;;4993978;28;20049;-71
2021/09/29 01:02:21;;;;;;;16.13;7.20;;;13.50;98.80;;;;;;4993958;28;20038;-71
2021/09/29 01:04:48;;;;;;;16.65;7.20;;;13.50;98.80;;;;;;4993638;28;20045;-71
2021/09/29 01:07:39;;;;;;;12.68;6.60;;;13.50;98.80;;;;;;4992524;28;20034;-71
2021/09/29 01:10:26;;;;;;;11.75;6.55;;;13.50;98.80;;;;;;4993362;28;20588;-71
2021/09/29 01:13:01;;;;;;;11.98;6.28;;;13.50;98.80;;;;;;4993992;28;20298;-71
2021/09/29 01:15:33;;;;;;;15.40;7.38;;;13.50;98.80;;;;;;4993434;28;20031;-71
2021/09/29 01:18:08;;;;;;;13.20;6.32;;;13.50;98.80;;;;;;4993402;28;20035;-72
2021/09/29 01:21:07;;;;;;;15.50;6.78;;;13.50;98.90;;;;;;4993308;28;20042;-72
2021/09/29 01:23:53;;;;;;;14.25;6.55;;;13.40;98.90;;;;;;4992440;28;20143;-72
2021/09/29 01:26:25;;;;;;;11.07;6.75;;;13.40;99.20;;;;;;4993422;28;20038;-73
2021/09/29 01:28:57;;;;;;;12.95;7.38;;;13.30;99.00;;;;;;4992482;28;20075;-73
2021/09/29 01:31:24;;;;;;;16.15;6.20;;;13.30;99.00;;;;;;4992399;28;20042;-72
2021/09/29 01:33:52;;;;;;;13.70;6.97;;;13.30;99.00;;;;;;4993592;28;20034;-71
2021/09/29 01:36:19;;;;;;;15.40;7.03;;;13.40;99.10;;;;;;4979841;28;20358;-72
2021/09/29 01:38:48;;;;;;;10.27;6.93;;;13.30;98.90;;;;;;4973641;28;20362;-72
2021/09/29 01:41:14;;;;;;;13.35;6.70;;;13.30;98.90;;;;;;4973835;28;20034;-72
2021/09/29 01:43:39;;;;;;;13.23;5.90;;;13.30;98.90;;;;;;4973607;28;20045;-72
2021/09/29 01:46:06;;;;;;;13.00;6.53;;;13.30;99.20;;;;;;4973691;28;20093;-71
2021/09/29 01:48:32;;;;;;;13.07;6.60;;;13.30;99.00;;;;;;4973032;28;20093;-72
2021/09/29 01:51:00;;;;;;;13.32;7.20;;;13.30;99.10;;;;;;4973426;28;20030;-72
2021/09/29 01:53:30;;;;;;;16.63;6.13;;;13.40;99.10;;;;;;4973311;28;20042;-72
2021/09/29 01:55:57;;;;;;;11.77;5.90;;;13.30;99.00;;;;;;4973491;28;20038;-71
2021/09/29 01:58:22;;;;;;;10.32;6.20;;;13.30;99.10;;;;;;4973413;28;20174;-72
2021/09/29 02:00:48;;;;;;;9.05;5.55;;;13.30;99.10;;;;;;4973900;28;20031;-72
2021/09/29 02:03:20;;;;;;;14.25;6.50;;;13.30;99.20;;;;;;4973661;28;20326;-71
2021/09/29 02:05:49;;;;;;;14.80;5.90;;;13.30;99.20;;;;;;4972172;28;20078;-71
2021/09/29 02:08:15;;;;;;;10.05;5.88;;;13.30;99.20;;;;;;4973269;28;20030;-72
2021/09/29 02:10:40;;;;;;;15.18;6.78;;;13.30;99.20;;;;;;4971793;28;20053;-71
2021/09/29 02:13:06;;;;;;;12.52;6.28;;;13.30;99.20;;;;;;4972946;28;20023;-72
2021/09/29 02:15:31;;;;;;;11.70;5.97;;;13.20;99.10;;;;;;4974153;28;20058;-72
2021/09/29 02:17:57;;;;;;;10.70;5.35;;;13.30;99.20;;;;;;4971896;28;20133;-72
2021/09/29 02:20:23;;;;;;;11.65;5.45;;;13.30;99.20;;;;;;4973046;28;20069;-73
2021/09/29 02:22:49;;;;;;;9.18;5.25;;;13.40;99.00;;;;;;4972781;28;20030;-72
2021/09/29 02:25:14;;;;;;;9.40;5.18;;;13.40;99.10;;;;;;4972898;28;20054;-72
2021/09/29 02:27:40;;;;;;;8.52;5.43;;;13.30;99.10;;;;;;4973095;28;20101;-72
2021/09/29 02:30:08;;;;;;;9.10;5.78;;;13.30;99.10;;;;;;4971818;28;20475;-72
2021/09/29 02:32:35;;;;;;;10.15;5.68;;;13.30;99.10;;;;;;4972960;28;20224;-72
2021/09/29 02:35:01;;;;;;;8.68;4.68;;;13.20;99.10;;;;;;4972938;28;20115;-72
2021/09/29 02:37:26;;;;;;;11.73;4.57;;;13.20;99.20;;;;;;4972654;28;20042;-70
2021/09/29 02:39:52;;;;;;;12.02;5.43;;;13.20;99.10;;;;;;4972976;28;20242;-72
2021/09/29 02:42:18;;;;;;;12.73;5.18;;;13.20;99.10;;;;;;4972213;28;20155;-71
2021/09/29 02:44:43;;;;;;;8.70;5.40;;;13.30;99.20;;;;;;4972491;28;20097;-73
2021/09/29 02:47:09;;;;;;;11.07;5.20;;;13.30;99.10;;;;;;4972578;28;20034;-73
2021/09/29 02:49:35;;;;;;;8.65;5.10;;;13.20;99.10;;;;;;4972546;28;20039;-72
2021/09/29 02:52:00;;;;;;;11.07;4.95;;;13.20;99.10;;;;;;4972834;28;20023;-71
2021/09/29 02:54:26;;;;;;;10.63;4.97;;;13.20;99.20;;;;;;4972417;28;20035;-72
2021/09/29 02:56:51;;;;;;;8.45;4.88;;;13.20;99.20;;;;;;4972437;28;20351;-71
2021/09/29 02:59:17;;;;;;;8.93;4.20;;;13.20;99.20;;;;;;4972260;28;20037;-71
2021/09/29 03:01:43;;;;;;;10.73;4.90;;;13.30;99.20;;;;;;4967093;28;20108;-72
2021/09/29 03:04:09;;;;;;;13.88;4.70;;;13.20;99.10;;;;;;4953786;28;20042;-71
2021/09/29 03:06:35;;;;;;;7.85;3.67;;;13.30;99.20;;;;;;4972763;28;20026;-72
2021/09/29 03:09:01;;;;;;;8.57;3.55;;;13.20;99.20;;;;;;4972009;28;20034;-72
2021/09/29 03:11:26;;;;;;;7.10;3.95;;;13.30;99.10;;;;;;4972268;28;20040;-71
2021/09/29 03:13:52;;;;;;;11.63;3.80;;;13.30;99.10;;;;;;4972033;28;20065;-71
2021/09/29 03:16:18;;;;;;;7.97;3.47;;;13.30;99.10;;;;;;4971341;28;20061;-71
2021/09/29 03:18:44;;;;;;;5.82;3.58;;;13.30;98.90;;;;;;4972618;28;20521;-72
2021/09/29 03:21:10;;;;;;;7.95;3.88;;;13.40;98.90;;;;;;4971973;28;20037;-72
2021/09/29 03:23:36;;;;;;;12.32;4.78;;;13.30;98.90;;;;;;4972253;28;20037;-72
2021/09/29 03:26:02;;;;;;;6.40;3.88;;;13.40;98.90;;;;;;4972162;28;20453;-72
2021/09/29 03:28:28;;;;;;;12.50;4.30;;;13.30;99.00;;;;;;4968824;28;20038;-72
2021/09/29 03:30:53;;;;;;;6.88;3.97;;;13.30;99.00;;;;;;4953290;28;20369;-72
2021/09/29 03:33:19;;;;;;;8.07;3.85;;;13.30;99.00;;;;;;4970877;28;20407;-72
2021/09/29 03:35:45;;;;;;;8.52;3.80;;;13.20;99.00;;;;;;4972045;28;20028;-71
2021/09/29 03:38:10;;;;;;;11.13;4.30;;;13.20;99.00;;;;;;4971937;28;20047;-71
2021/09/29 03:40:36;;;;;;;12.07;4.00;;;13.10;99.00;;;;;;4971995;28;20034;-71
2021/09/29 03:43:02;;;;;;;11.50;4.00;;;13.20;99.10;;;;;;4972603;28;20031;-71
2021/09/29 03:45:28;;;;;;;9.73;3.75;;;13.20;99.00;;;;;;4972031;28;20047;-71
2021/09/29 03:47:53;;;;;;;8.48;4.38;;;13.30;98.90;;;;;;4971833;28;20031;-71
2021/09/29 03:50:19;;;;;;;7.82;3.88;;;13.30;98.90;;;;;;4970934;28;20043;-71
2021/09/29 03:52:45;;;;;;;8.90;3.92;;;13.30;99.00;;;;;;4970677;28;20116;-72
2021/09/29 03:55:11;;;;;;;8.60;3.88;;;13.20;99.10;;;;;;4974906;28;20050;-71
2021/09/29 03:57:37;;;;;;;9.10;3.92;;;13.20;99.20;;;;;;4976054;28;20687;-72
2021/09/29 04:00:05;;;;;;;6.95;4.22;;;13.20;99.00;;;;;;4975539;28;20039;-71
2021/09/29 04:02:31;;;;;;;;;;;13.20;99.00;;;;;;4975985;28;20410;-71
2021/09/29 04:04:56;;;;;;;6.20;3.50;;;13.20;99.00;;;;;;4975364;28;19921;-71
2021/09/29 04:07:22;;;;;;;7.65;4.43;;;13.20;98.90;;;;;;4975206;28;20458;-71
2021/09/29 04:09:47;;;;;;;6.60;3.67;;;13.20;99.10;;;;;;4975451;28;20109;-71
2021/09/29 04:12:13;;;;;;;12.38;3.97;;;13.20;99.30;;;;;;4975121;28;20070;-71
2021/09/29 04:14:40;;;;;;;6.22;4.00;;;13.20;99.20;;;;;;4974424;28;20426;-71
2021/09/29 04:17:06;;;;;;;8.35;3.42;;;13.10;99.30;;;;;;4975343;28;20045;-73
2021/09/29 04:19:31;;;;;;;7.90;3.50;;;13.10;99.20;;;;;;4975282;28;20027;-73
2021/09/29 04:21:58;;;;;;;9.13;4.28;;;13.20;99.00;;;;;;4975537;28;20034;-71
2021/09/29 04:24:24;;;;;;;9.98;3.72;;;13.10;99.10;;;;;;4975033;28;20035;-71
2021/09/29 04:26:50;;;;;;;10.27;4.05;;;13.10;99.10;;;;;;4974724;28;20524;-70
2021/09/29 04:29:16;;;;;;;8.93;3.78;;;13.10;99.30;;;;;;4975102;28;20041;-71
2021/09/29 04:31:42;;;;;;;8.07;3.50;;;13.10;99.30;;;;;;4975072;28;20109;-73
2021/09/29 04:34:07;;;;;;;13.43;4.35;;;13.10;99.20;;;;;;4974800;28;20033;-71
2021/09/29 04:36:33;;;;;;;6.68;3.25;;;13.10;99.10;;;;;;4975149;28;20043;-72
2021/09/29 04:38:58;;;;;;;11.07;4.38;;;13.10;99.10;;;;;;4974835;28;20055;-72
2021/09/29 04:41:24;;;;;;;8.38;3.38;;;13.10;99.10;;;;;;4974404;28;20027;-71
2021/09/29 04:43:50;;;;;;;5.75;3.38;;;13.10;99.30;;;;;;4974625;28;20299;-71
2021/09/29 04:46:16;;;;;;;4.55;3.40;;;13.10;99.10;;;;;;4974506;28;20023;-72
2021/09/29 04:48:42;;;;;;;5.80;3.42;;;13.10;99.30;;;;;;4975013;28;20019;-72
2021/09/29 04:51:07;;;;;;;8.02;3.75;;;13.10;99.30;;;;;;4973534;28;20031;-72
2021/09/29 04:53:33;;;;;;;10.07;3.40;;;13.10;99.30;;;;;;4974140;28;20472;-71
2021/09/29 04:56:00;;;;;;;10.05;4.43;;;13.00;99.40;;;;;;4973860;28;20049;-71
2021/09/29 04:58:26;;;;;;;7.53;3.75;;;13.00;99.30;;;;;;4974280;28;20030;-71
2021/09/29 05:00:52;;;;;;;6.30;3.25;;;13.10;99.40;;;;;;4974416;28;20442;-71
2021/09/29 05:03:19;;;;;;;8.70;4.28;;;13.00;99.40;;;;;;4974214;28;20035;-73
2021/09/29 05:05:45;;;;;;;6.90;3.35;;;13.00;99.40;;;;;;4972393;28;20032;-72
2021/09/29 05:08:23;;;;;;;8.02;3.25;;;13.00;99.30;;;;;;4972736;28;20365;-72
2021/09/29 05:11:10;;;;;;;6.97;3.05;;;12.90;99.50;;;;;;4973165;28;20481;-72
2021/09/29 05:13:36;;;;;;;6.82;3.65;;;13.00;99.60;;;;;;4973227;28;20053;-74
2021/09/29 05:16:03;;;;;;;9.93;3.85;;;13.00;99.40;;;;;;4973967;28;20027;-73
2021/09/29 05:18:29;;;;;;;10.40;3.13;;;13.00;99.50;;;;;;4973652;28;20081;-71
2021/09/29 05:20:56;;;;;;;12.07;3.45;;;12.90;99.70;;;;;;4973539;28;20031;-72
2021/09/29 05:23:22;;;;;;;6.07;3.00;;;13.00;99.60;;;;;;4973581;28;20027;-72
2021/09/29 05:25:47;;;;;;;6.10;3.40;;;12.90;99.60;;;;;;4973690;28;20448;-72
2021/09/29 05:28:16;;;;;;;6.18;3.38;;;13.00;99.70;;;;;;4973621;28;20034;-72
2021/09/29 05:30:43;;;;;;;15.27;4.05;;;12.90;99.60;;;;;;4972840;28;20047;-75
2021/09/29 05:33:08;;;;;;;9.35;3.78;;;13.00;99.70;;;;;;4972381;28;20058;-72
2021/09/29 05:35:34;;;;;;;5.38;3.17;;;13.00;99.80;;;;;;4973417;28;20050;-73
2021/09/29 05:38:00;;;;;;;11.32;3.90;;;13.00;99.60;;;;;;4973164;28;20113;-73
2021/09/29 05:40:25;;;;;;;10.05;3.80;;;13.10;99.80;;;;;;4972238;28;20054;-73
2021/09/29 05:42:51;;;;;;;9.30;3.75;;;13.10;99.80;;;;;;4973442;28;20050;-75
2021/09/29 05:45:17;;;;;;;7.35;3.60;;;13.10;99.70;;;;;;4973298;28;20035;-72
2021/09/29 05:47:42;;;;;;;8.45;3.90;;;13.10;99.80;;;;;;4973000;28;20350;-73
2021/09/29 05:50:09;;;;;;;12.23;4.78;;;13.10;99.50;;;;;;4973213;28;20031;-73
2021/09/29 05:52:34;;;;;;;7.38;3.28;;;13.10;99.70;;;;;;4973134;28;20043;-73
2021/09/29 05:55:00;;;;;;;8.30;4.10;;;13.20;99.70;;;;;;4973330;28;20086;-72
2021/09/29 05:57:26;;;;;;;15.07;3.42;;;13.20;99.70;;;;;;4972991;28;20038;-71
2021/09/29 05:59:51;;;;;;;10.43;3.95;;;13.10;99.70;;;;;;4972752;28;20034;-71
2021/09/29 06:02:18;;;;;;;8.85;3.72;;;13.10;99.90;;;;;;4983263;28;20038;-71
2021/09/29 06:04:43;;;;;;;9.30;4.38;;;13.00;99.90;;;;;;4992263;28;20138;-71
2021/09/29 06:07:11;;;;;;;11.20;4.38;;;13.00;99.90;;;;;;4991983;28;20109;-72
2021/09/29 06:09:40;;;;;;;10.07;5.10;;;13.10;99.90;;;;;;4992440;28;20042;-71
2021/09/29 06:12:07;;;;;;;9.65;4.32;;;13.10;99.90;;;;;;4991966;28;20109;-71
2021/09/29 06:14:33;;;;;;;7.82;4.47;;;13.20;99.90;;;;;;4992138;28;20060;-72
2021/09/29 06:17:11;;;;;;;9.55;4.55;;;13.30;99.70;;;;;;4991184;28;20076;-71
2021/09/29 06:19:37;;;;;;;;;;;13.30;99.80;;;;;;4992489;28;20351;-72
2021/09/29 06:22:04;;;;;;;14.30;4.88;;;13.20;99.90;;;;;;4992188;28;19909;-72
2021/09/29 06:24:30;;;;;;;11.35;5.10;;;13.20;99.90;;;;;;4991798;28;20057;-72
2021/09/29 06:26:56;;;;;;;10.45;5.50;;;13.10;99.90;;;;;;4991777;28;20034;-70
2021/09/29 06:29:22;;;;;;;15.65;5.70;;;13.20;99.90;;;;;;4991802;28;20023;-72
2021/09/29 06:31:48;;;;;;;11.57;5.50;;;13.20;99.90;;;;;;4990764;28;20097;-71
2021/09/29 06:34:13;;;;;;;12.07;5.13;;;13.20;99.90;;;;;;4991468;28;20046;-71
2021/09/29 06:36:39;;;;;;;12.00;7.22;;;13.20;99.90;;;;;;4991960;28;20480;-71
2021/09/29 06:39:04;;;;;;;17.50;8.73;;;13.30;99.90;;;;;;4990437;28;20053;-71
2021/09/29 06:41:30;;;;;;;17.30;8.80;;;13.40;99.90;;;;;;4991419;28;20027;-72
2021/09/29 06:43:55;;;;;;;12.80;6.57;;;13.50;99.90;;;;;;4991377;28;20030;-72
2021/09/29 06:46:21;;;;;;;20.33;9.68;;;13.60;99.90;;;;;;4991558;28;20054;-70
2021/09/29 06:48:47;;;;;;;19.58;8.80;;;13.60;99.90;;;;;;4990688;28;20033;-71
2021/09/29 06:51:12;;;;;;;22.08;8.38;;;13.70;99.90;;;;;;4991533;28;20026;-71
2021/09/29 06:53:39;;;;;;;11.60;6.55;;;13.70;99.90;;;;;;4989827;28;20438;-71
2021/09/29 06:56:05;;;;;;;13.07;5.63;;;13.70;99.90;;;;;;4983125;28;20038;-70
2021/09/29 06:58:31;;;;;;;8.98;6.38;;;13.80;99.90;;;;;;4975399;28;20031;-72
2021/09/29 07:00:57;;;;;;;12.95;6.35;;;13.80;99.90;;;;;;4990525;28;20022;-71
2021/09/29 07:03:24;;;;;;;13.23;6.63;;;13.80;99.90;;;;;;4991192;28;20511;-71
2021/09/29 07:05:50;;;;;;;11.88;6.22;;;13.90;99.90;;;;;;4991016;28;20030;-70
2021/09/29 07:08:16;;;;;;;11.57;6.28;;;13.90;99.90;;;;;;4991155;28;20050;-71
2021/09/29 07:10:41;;;;;;;12.88;6.22;;;13.90;99.90;;;;;;4989644;28;20562;-72
2021/09/29 07:13:07;;;;;;;16.42;7.10;;;13.90;99.90;;;;;;4989737;28;20034;-72
2021/09/29 07:15:34;;;;;;;11.95;6.30;;;14.00;99.90;;;;;;4991637;28;20363;-72
2021/09/29 07:18:00;;;;;;;14.55;7.15;;;14.00;99.90;;;;;;4991261;28;20034;-71
2021/09/29 07:20:27;;;;;;;14.90;6.97;;;13.90;99.90;;;;;;4991127;28;20022;-71
2021/09/29 07:22:54;;;;;;;12.10;6.63;;;14.10;99.90;;;;;;4991190;28;20038;-72
2021/09/29 07:25:21;;;;;;;10.52;6.93;;;14.00;99.90;;;;;;4990912;28;20679;-72
2021/09/29 07:27:46;;;;;;;19.13;7.97;;;14.20;99.90;;;;;;4992308;28;20026;-71
2021/09/29 07:30:12;;;;;;;21.10;12.10;;;14.30;99.90;;;;;;4993903;28;20030;-71
2021/09/29 07:32:38;;;;;;;20.95;11.35;;;14.40;99.90;;;;;;4994681;28;20038;-72
2021/09/29 07:35:04;;;;;;;18.65;9.85;;;14.40;99.90;;;;;;4995217;28;20053;-71
2021/09/29 07:37:30;;;;;;;17.40;9.57;;;14.50;99.90;;;;;;4993844;28;20026;-71
2021/09/29 07:39:55;;;;;;;27.02;13.43;;;14.60;99.80;;;;;;4995353;28;20073;-71
2021/09/29 07:42:21;;;;;;;22.25;11.43;;;14.60;99.70;;;;;;4994769;28;20156;-71
2021/09/29 07:44:47;;;;;;;16.63;9.52;;;14.70;99.70;;;;;;4994778;28;20133;-69
2021/09/29 07:47:12;;;;;;;16.27;8.98;;;14.80;99.70;;;;;;4994886;28;20018;-70
2021/09/29 07:49:38;;;;;;;15.38;8.75;;;14.90;99.70;;;;;;4994851;28;20069;-71
2021/09/29 07:52:04;;;;;;;18.33;9.07;;;15.00;99.50;;;;;;4994686;28;20031;-69
2021/09/29 07:54:30;;;;;;;15.63;8.05;;;15.00;99.30;;;;;;4995045;28;20026;-71
2021/09/29 07:56:55;;;;;;;14.68;8.35;;;15.00;99.20;;;;;;4994702;28;20081;-70
2021/09/29 07:59:22;;;;;;;12.50;8.27;;;15.00;99.30;;;;;;4994529;28;20334;-70
2021/09/29 08:01:49;;;;;;;14.80;8.40;;;15.10;99.10;;;;;;4994619;28;20122;-70
2021/09/29 08:04:19;;;;;;;16.52;7.07;;;15.20;99.00;;;;;;4994495;28;20019;-70
2021/09/29 08:06:44;;;;;;;12.30;7.25;;;15.30;98.80;;;;;;4993793;28;20037;-71
2021/09/29 08:09:10;;;;;;;10.32;6.95;;;15.40;98.80;;;;;;4994399;28;20034;-71
2021/09/29 08:11:36;;;;;;;16.15;6.78;;;15.40;98.70;;;;;;4994530;28;20058;-71
2021/09/29 08:14:02;;;;;;;12.32;6.55;;;15.40;98.50;;;;;;4994558;28;20042;-70
2021/09/29 08:16:27;;;;;;;9.73;6.35;;;15.50;98.60;;;;;;4994536;28;20445;-70
2021/09/29 08:18:53;;;;;;;15.45;8.50;;;15.60;98.40;;;;;;4995189;28;20095;-70
2021/09/29 08:21:27;;;;;;;16.95;9.80;;;15.60;98.40;;;;;;4994312;28;20141;-71
2021/09/29 08:23:55;;;;;;;14.68;7.18;;;15.60;98.40;;;;;;4994255;28;20228;-72
2021/09/29 08:26:37;;;;;;;12.23;7.15;;;15.70;98.30;;;;;;4994224;28;20206;-71
2021/09/29 08:29:19;;;;;;;13.10;7.03;;;15.60;98.30;;;;;;4994059;28;20026;-71
2021/09/29 08:34:39;;;;;;;15.52;7.10;;;15.60;98.20;;;;;;4993984;28;20045;-71
2021/09/29 08:39:44;;;;;;;16.42;7.38;;;15.60;98.50;;;;;;4993823;28;20385;-71
2021/09/29 08:47:33;;;;;;;16.60;6.55;;;15.60;98.30;;;;;;4994135;28;20121;-70
2021/09/29 08:50:10;;;;;;;14.13;6.22;;;15.70;98.40;;;;;;4993739;28;20473;-70
2021/09/29 08:55:35;;;;;;;16.23;8.98;;;15.80;98.00;;;;;;4994520;28;20054;-72
2021/09/29 08:58:18;;;;;;;10.52;5.82;;;16.00;98.10;;;;;;4993413;28;20172;-70
2021/09/29 09:14:55;;;;;;;13.82;4.47;;;16.30;97.20;;;;;;4982993;28;20195;-71
2021/09/29 09:17:30;;;;;;;6.88;4.20;;;16.20;96.90;;;;;;4984018;28;20034;-71
2021/09/29 09:20:09;;;;;;;12.00;6.43;;;16.10;97.10;;;;;;4993107;28;20050;-71
2021/09/29 09:22:35;;;;;;;10.38;4.00;;;16.20;97.10;;;;;;4992639;28;20045;-71
2021/09/29 09:25:01;;;;;;;10.60;4.45;;;16.20;97.00;;;;;;4992139;28;20428;-72
2021/09/29 09:27:37;;;;;;;8.35;4.25;;;16.20;97.00;;;;;;4993175;28;20042;-71
2021/09/29 09:30:03;;;;;;;9.75;4.35;;;16.30;96.90;;;;;;4992629;28;20377;-71
2021/09/29 09:32:44;;;;;;;8.07;4.13;;;16.50;97.20;;;;;;4992683;28;20424;-71
2021/09/29 09:35:13;;;;;;;6.32;3.65;;;16.70;97.00;;;;;;4992547;28;20037;-69
2021/09/29 09:37:40;;;;;;;7.15;3.45;;;17.80;96.20;;;;;;4992553;28;20039;-70
2021/09/29 09:40:16;;;;;;;3.37;2.70;;;18.20;95.20;;;;;;4992422;28;20022;-70
2021/09/29 09:42:43;;;;;;;7.55;3.35;;;18.50;94.80;;;;;;4992479;28;20054;-70
2021/09/29 09:45:10;;;;;;;5.50;3.15;;;18.90;94.80;;;;;;4992332;28;20038;-70
2021/09/29 09:47:45;;;;;;;7.88;3.00;;;19.60;92.90;;;;;;4992256;28;20037;-69
2021/09/29 09:50:22;;;;;;;3.58;2.35;;;20.30;92.90;;;;;;4992691;28;20049;-70
2021/09/29 09:52:48;;;;;;;;;;;20.50;91.70;;;;;;4992231;28;20073;-70
2021/09/29 09:55:16;;;;;;;4.80;2.75;;;20.30;91.80;;;;;;4992271;28;19944;-70
2021/09/29 09:57:43;;;;;;;5.30;2.42;;;20.20;91.70;;;;;;4992620;28;20080;-70
2021/09/29 10:00:14;;;;;;;6.38;2.45;;;20.10;91.90;;;;;;4992009;28;20034;-70
2021/09/29 10:02:48;;;;;;;3.25;2.20;;;20.00;91.80;;;;;;4992182;28;20049;-69
2021/09/29 10:05:18;;;;;;;4.18;2.28;;;19.80;91.70;;;;;;4991927;28;20043;-70
2021/09/29 10:07:48;;;;;;;7.45;2.60;;;19.50;91.90;;;;;;4991980;28;20042;-71
2021/09/29 10:10:42;;;;;;;4.22;2.30;;;20.10;92.00;;;;;;4991602;28;20500;-72
2021/09/29 10:27:19;;;;;;;5.93;1.70;;;25.80;80.50;;;;;;4991657;28;20022;-70
2021/09/29 10:30:12;;;;;;;3.85;1.40;;;25.70;76.20;;;;;;4991724;28;20342;-70
2021/09/29 10:32:46;;;;;;;3.28;1.35;;;27.00;76.80;;;;;;4991814;28;20122;-72
2021/09/29 10:35:31;;;;;;;5.40;1.33;;;27.40;70.60;;;;;;4991559;28;20457;-72
2021/09/29 10:43:33;;;;;;;5.32;2.22;;;28.50;65.60;;;;;;4991764;28;20132;-70
2021/09/29 11:05:12;;;;;;;3.53;1.30;;;29.00;59.80;;;;;;4991079;28;20415;-72
2021/09/29 11:09:51;;;;;;;3.80;1.13;;;29.30;59.00;;;;;;4991007;28;20123;-69
2021/09/29 11:29:18;;;;;;;6.35;1.52;;;23.40;66.50;;;;;;4991210;28;20080;-70
2021/09/29 11:31:49;;;;;;;7.15;1.70;;;23.10;67.20;;;;;;4991023;28;20038;-69
2021/09/29 11:34:22;;;;;;;3.20;1.50;;;22.60;67.80;;;;;;4991072;28;20061;-69
2021/09/29 12:10:27;;;;;;;8.65;3.15;;;20.60;78.60;;;;;;4990932;28;20049;-72
2021/09/29 12:12:53;;;;;;;4.47;2.08;;;20.60;79.00;;;;;;4991698;28;20029;-71
2021/09/29 12:15:19;;;;;;;6.82;2.50;;;20.50;78.80;;;;;;4992684;28;20034;-71
2021/09/29 12:17:49;;;;;;;8.02;4.10;;;20.60;78.60;;;;;;4994268;28;20341;-70
2021/09/29 12:20:23;;;;;;;10.10;5.03;;;20.40;79.20;;;;;;4984880;28;20057;-71
2021/09/29 12:22:53;;;;;;;5.00;1.50;;;20.40;79.30;;;;;;4981210;28;20045;-71
2021/09/29 12:25:32;;;;;;;4.47;1.25;;;20.10;79.90;;;;;;4994579;28;20453;-71
2021/09/29 12:34:10;;;;;;;5.07;1.40;;;20.30;80.60;;;;;;4994146;28;20046;-71
2021/09/29 12:36:36;;;;;;;16.98;7.75;;;20.10;81.20;;;;;;4994117;28;20364;-71
2021/09/29 12:39:16;;;;;;;7.07;3.58;;;20.10;81.10;;;;;;4994345;28;20031;-70
2021/09/29 12:41:53;;;;;;;4.10;1.52;;;20.20;81.50;;;;;;4994213;28;20531;-72
2021/09/29 12:44:19;;;;;;;6.23;1.80;;;20.20;80.20;;;;;;4994183;28;20092;-73
2021/09/29 12:46:52;;;;;;;4.15;1.75;;;20.00;80.30;;;;;;4992651;28;20511;-72
2021/09/29 12:49:21;;;;;;;5.90;1.92;;;19.90;80.10;;;;;;4993961;28;20379;-71
2021/09/29 12:51:57;;;;;;;7.45;2.15;;;19.90;80.00;;;;;;4994299;28;20512;-71
2021/09/29 12:54:24;;;;;;;5.28;1.35;;;19.90;79.90;;;;;;4994216;28;20046;-71
2021/09/29 12:56:50;;;;;;;6.28;1.65;;;20.10;80.10;;;;;;4993753;28;20108;-71
2021/09/29 12:59:15;;;;;;;3.38;1.00;;;20.20;79.80;;;;;;4993576;28;20058;-72
2021/09/29 13:01:41;;;;;;;8.65;1.83;;;20.20;78.70;;;;;;4993638;28;20475;-72
2021/09/29 13:04:06;;;;;;;6.75;1.58;;;20.10;78.80;;;;;;4993682;28;20026;-71
2021/09/29 13:06:32;;;;;;;3.17;1.48;;;20.10;78.40;;;;;;4994047;28;20504;-72
2021/09/29 13:08:57;;;;;;;2.63;0.82;;;20.00;78.70;;;;;;4993125;28;20035;-71
2021/09/29 13:11:23;;;;;;;5.68;1.00;;;19.90;78.00;;;;;;4993515;28;20145;-71
2021/09/29 13:13:48;;;;;;;5.30;1.23;;;19.80;77.70;;;;;;4992261;28;20382;-71
2021/09/29 13:16:14;;;;;;;4.65;1.23;;;19.80;78.10;;;;;;4993087;28;20061;-71
2021/09/29 13:21:26;;;;;;;3.25;0.63;;;19.80;77.10;;;;;;4993337;28;20134;-71
2021/09/29 13:23:59;;;;;;;2.65;1.20;;;19.70;76.70;;;;;;4992986;28;20173;-71
2021/09/29 13:37:06;;;;;;;3.45;0.98;;;19.10;77.90;;;;;;4992464;28;20101;-69
2021/09/29 13:39:32;;;;;;;3.03;0.90;;;19.00;78.30;;;;;;4993330;28;20449;-69
2021/09/29 13:41:57;;;;;;;4.13;0.95;;;19.00;79.30;;;;;;4992695;28;20420;-70
2021/09/29 13:44:25;;;;;;;4.28;1.08;;;18.90;79.10;;;;;;4992746;28;20026;-70
2021/09/29 13:46:51;;;;;;;6.70;1.35;;;18.90;82.20;;;;;;4992645;28;20266;-68
2021/09/29 13:49:17;;;;;;;3.53;1.45;;;18.10;87.00;;;;;;4991644;28;20031;-68
2021/09/29 13:51:48;;;;;;;4.93;1.60;;;17.50;90.60;;;;;;4993130;28;20047;-70
2021/09/29 13:54:22;;;;;;;3.72;1.10;;;17.10;91.50;;;;;;4992454;28;20062;-69
2021/09/29 13:59:34;;;;;;;7.72;1.40;;;16.50;92.30;;;;;;4992509;28;20065;-69
2021/09/29 14:29:08;;;;;;;2.28;0.85;;;16.10;95.30;;;;;;4992171;28;20121;-70
2021/09/29 14:31:44;;;;;;;3.85;0.88;;;16.10;95.20;;;;;;4992270;28;20027;-70
2021/09/29 14:34:10;;;;;;;2.38;1.05;;;16.10;95.00;;;;;;4991910;28;20026;-70
2021/09/29 14:36:36;;;;;;;2.20;1.10;;;16.10;95.40;;;;;;4992185;28;20026;-70
2021/09/29 14:39:02;;;;;;;3.35;1.10;;;16.10;95.00;;;;;;4991444;28;20038;-69
2021/09/29 14:41:28;;;;;;;3.30;1.20;;;16.10;95.10;;;;;;4991697;28;20376;-69
2021/09/29 14:43:54;;;;;;;1.90;0.80;;;16.00;95.10;;;;;;4991942;28;20045;-70
2021/09/29 14:46:19;;;;;;;1.85;0.88;;;16.00;95.60;;;;;;4991408;28;20027;-70
2021/09/29 14:48:45;;;;;;;1.83;1.02;;;16.00;95.30;;;;;;4992085;28;20101;-70
2021/09/29 14:51:11;;;;;;;4.85;1.77;;;15.90;95.50;;;;;;4991677;28;20113;-69
2021/09/29 14:53:39;;;;;;;2.28;1.13;;;16.00;95.70;;;;;;4990319;28;20088;-69
2021/09/29 14:56:06;;;;;;;6.38;2.10;;;16.10;95.20;;;;;;4990433;28;20046;-70
2021/09/29 14:58:33;;;;;;;1.80;1.08;;;16.10;95.80;;;;;;4990402;28;20044;-70
2021/09/29 15:00:59;;;;;;;1.58;1.27;;;16.00;95.40;;;;;;4991828;28;20041;-69
2021/09/29 15:03:25;;;;;;;5.65;1.27;;;15.80;95.20;;;;;;4991315;28;20034;-70
2021/09/29 15:05:53;;;;;;;4.03;2.15;;;15.80;95.70;;;;;;4991174;28;20041;-69
2021/09/29 15:08:19;;;;;;;;;;;15.80;95.40;;;;;;4991651;28;20066;-70
2021/09/29 15:10:45;;;;;;;2.47;1.90;;;15.70;95.20;;;;;;4991129;28;19976;-70
2021/09/29 15:13:13;;;;;;;4.88;2.17;;;15.70;95.60;;;;;;4991049;28;20133;-70
2021/09/29 15:15:52;;;;;;;4.28;1.58;;;15.70;95.30;;;;;;4991675;28;20030;-70
2021/09/29 15:18:23;;;;;;;2.28;1.50;;;15.70;95.50;;;;;;4990151;28;20089;-69
2021/09/29 15:21:13;;;;;;;2.78;1.70;;;15.70;95.40;;;;;;4991422;28;20027;-70
2021/09/29 15:24:05;;;;;;;3.63;2.28;;;15.70;95.30;;;;;;4991217;28;20050;-70
2021/09/29 15:54:06;;;;;;;2.03;0.95;;;15.20;94.10;;;;;;4985923;28;20126;-70
2021/09/29 15:59:04;;;;;;;1.08;0.68;;;14.90;95.00;;;;;;4994672;28;20674;-70
2021/09/29 16:01:33;;;;;;;1.73;0.70;;;14.90;95.00;;;;;;4994524;28;20033;-69
2021/09/29 16:04:16;;;;;;;2.92;1.00;;;15.00;95.50;;;;;;4995127;28;20026;-70
2021/09/29 16:30:29;;;;;;;2.10;0.90;;;14.80;94.00;;;;;;4994401;28;20118;-71